Time;durP1;ratioP1;P1;durP2;ratioP2;P2;SDS_P1;SDS_P2;PMS_P1;PMS_P2;Temp;Humidity;BMP_temperature;BMP_pressure;BME280_temperature;BME280_humidity;BME280_pressure;Samples;Min_cycle;Max_cycle;Signal;HPM_P1;HPM_P2
2022/07/17 00:01:23;;;;;;;3.38;1.02;;;;;;;;;;4932639;29;20144;-63
2022/07/17 00:03:50;;;;;;;3.92;1.10;;;;;;;;;;4941116;28;20065;-64
2022/07/17 00:06:16;;;;;;;3.67;1.10;;;;;;;;;;4976562;28;20046;-63
2022/07/17 00:08:43;;;;;;;3.55;1.20;;;;;;;;;;4967263;28;20105;-65
2022/07/17 00:11:11;;;;;;;3.10;1.00;;;;;;;;;;4973325;28;20078;-64
2022/07/17 00:13:38;;;;;;;2.35;1.15;;;;;;;;;;4966895;28;20063;-64
2022/07/17 00:16:05;;;;;;;2.72;1.05;;;;;;;;;;4955578;28;20070;-63
2022/07/17 00:18:32;;;;;;;3.63;1.20;;;;;;;;;;4954985;28;20054;-63
2022/07/17 00:20:58;;;;;;;4.00;0.95;;;;;;;;;;4955055;28;20074;-64
2022/07/17 00:23:25;;;;;;;1.48;0.90;;;;;;;;;;4956596;28;20055;-63
2022/07/17 00:25:51;;;;;;;5.35;0.90;;;;;;;;;;4963302;28;20046;-64
2022/07/17 00:28:20;;;;;;;3.25;1.20;;;;;;;;;;4975071;28;20058;-64
2022/07/17 00:30:47;;;;;;;2.15;1.00;;;;;;;;;;4962879;28;20058;-64
2022/07/17 00:33:13;;;;;;;3.28;1.02;;;;;;;;;;4960275;28;20056;-63
2022/07/17 00:35:40;;;;;;;3.50;0.93;;;;;;;;;;4971110;28;20065;-64
2022/07/17 00:38:10;;;;;;;2.40;1.00;;;;;;;;;;4973647;28;20054;-63
2022/07/17 00:40:37;;;;;;;3.17;1.10;;;;;;;;;;4975275;28;20109;-64
2022/07/17 00:43:03;;;;;;;2.88;0.82;;;;;;;;;;4957302;28;20053;-64
2022/07/17 00:45:32;;;;;;;3.45;1.02;;;;;;;;;;4956002;28;20129;-64
2022/07/17 00:48:01;;;;;;;3.10;0.90;;;;;;;;;;4953430;28;20058;-64
2022/07/17 00:50:29;;;;;;;2.08;0.93;;;;;;;;;;4956327;28;20051;-64
2022/07/17 00:52:57;;;;;;;2.15;0.90;;;;;;;;;;4954719;28;20055;-64
2022/07/17 00:55:24;;;;;;;4.32;0.80;;;;;;;;;;4991880;28;20050;-64
2022/07/17 00:57:54;;;;;;;2.97;0.80;;;;;;;;;;4975577;28;20046;-64
2022/07/17 01:00:22;;;;;;;0.88;0.70;;;;;;;;;;4970424;28;20062;-64
2022/07/17 01:02:49;;;;;;;;;;;;;;;;;;4975580;28;20046;-64
2022/07/17 01:05:17;;;;;;;1.92;0.77;;;;;;;;;;4948991;28;19929;-64
2022/07/17 01:07:44;;;;;;;2.40;1.00;;;;;;;;;;4955610;28;20138;-64
2022/07/17 01:10:18;;;;;;;2.42;0.73;;;;;;;;;;4940323;28;20047;-64
2022/07/17 01:12:46;;;;;;;3.85;0.80;;;;;;;;;;4936053;29;20062;-64
2022/07/17 01:15:13;;;;;;;1.15;0.65;;;;;;;;;;4933918;28;20102;-64
2022/07/17 01:17:39;;;;;;;2.50;0.80;;;;;;;;;;4954952;28;20089;-64
2022/07/17 01:20:08;;;;;;;4.75;0.90;;;;;;;;;;4955113;28;20051;-64
2022/07/17 01:22:41;;;;;;;2.17;0.82;;;;;;;;;;4951493;28;20055;-64
2022/07/17 01:25:08;;;;;;;2.35;0.90;;;;;;;;;;4955108;28;20046;-64
2022/07/17 01:27:35;;;;;;;3.67;0.93;;;;;;;;;;4972904;28;20059;-64
2022/07/17 01:30:09;;;;;;;4.30;1.08;;;;;;;;;;4960878;28;20059;-64
2022/07/17 01:32:37;;;;;;;4.63;0.90;;;;;;;;;;4953208;28;20045;-64
2022/07/17 01:35:03;;;;;;;1.33;0.70;;;;;;;;;;4964937;28;20054;-64
2022/07/17 01:37:30;;;;;;;1.80;0.80;;;;;;;;;;4956182;28;20051;-64
2022/07/17 01:40:00;;;;;;;1.77;0.80;;;;;;;;;;4954133;28;20101;-64
2022/07/17 01:42:28;;;;;;;2.17;1.05;;;;;;;;;;4956514;28;20054;-64
2022/07/17 01:44:55;;;;;;;2.75;0.88;;;;;;;;;;4973571;28;20065;-64
2022/07/17 01:47:22;;;;;;;4.90;0.85;;;;;;;;;;4964427;28;20082;-64
2022/07/17 01:49:49;;;;;;;2.28;0.77;;;;;;;;;;4971464;28;20050;-64
2022/07/17 01:52:16;;;;;;;1.02;0.68;;;;;;;;;;4956734;28;20062;-64
2022/07/17 01:54:43;;;;;;;2.17;0.73;;;;;;;;;;4952963;28;20132;-64
2022/07/17 01:57:12;;;;;;;1.33;0.65;;;;;;;;;;4949992;28;20055;-64
2022/07/17 01:59:41;;;;;;;3.05;1.17;;;;;;;;;;4969279;28;20070;-63
2022/07/17 02:02:09;;;;;;;3.08;0.90;;;;;;;;;;4957161;28;20050;-64
2022/07/17 02:04:36;;;;;;;3.85;0.60;;;;;;;;;;4971477;28;20153;-64
2022/07/17 02:07:03;;;;;;;0.70;0.60;;;;;;;;;;4973953;28;20105;-64
2022/07/17 02:09:32;;;;;;;2.38;0.80;;;;;;;;;;4971164;28;20077;-63
2022/07/17 02:11:59;;;;;;;1.65;0.65;;;;;;;;;;4974080;28;20067;-65
2022/07/17 02:14:28;;;;;;;2.38;0.60;;;;;;;;;;4968278;28;20050;-65
2022/07/17 02:16:54;;;;;;;1.40;0.70;;;;;;;;;;4973465;28;20133;-65
2022/07/17 02:19:23;;;;;;;1.70;0.73;;;;;;;;;;4953625;28;20062;-65
2022/07/17 02:21:49;;;;;;;3.20;0.77;;;;;;;;;;4953588;28;20055;-66
2022/07/17 02:24:16;;;;;;;2.10;0.68;;;;;;;;;;4945744;29;20058;-66
2022/07/17 02:26:42;;;;;;;2.38;0.60;;;;;;;;;;4952388;28;20066;-65
2022/07/17 02:29:09;;;;;;;1.33;0.70;;;;;;;;;;4943668;29;20058;-65
2022/07/17 02:31:37;;;;;;;1.85;0.68;;;;;;;;;;4951138;28;20055;-65
2022/07/17 02:34:04;;;;;;;2.33;0.60;;;;;;;;;;4946101;28;20047;-66
2022/07/17 02:36:30;;;;;;;3.63;0.70;;;;;;;;;;4954208;28;20062;-66
2022/07/17 02:38:57;;;;;;;0.90;0.70;;;;;;;;;;4947514;29;20059;-65
2022/07/17 02:41:24;;;;;;;1.13;0.55;;;;;;;;;;4934771;29;20058;-66
2022/07/17 02:43:51;;;;;;;2.33;0.88;;;;;;;;;;4934066;29;20043;-66
2022/07/17 02:46:17;;;;;;;0.82;0.50;;;;;;;;;;4954917;29;20051;-66
2022/07/17 02:49:00;;;;;;;3.03;0.80;;;;;;;;;;4953134;28;20083;-65
2022/07/17 02:54:30;;;;;;;2.00;0.77;;;;;;;;;;4961352;28;20062;-63
2022/07/17 02:56:57;;;;;;;1.38;0.70;;;;;;;;;;4978884;28;20138;-63
2022/07/17 02:59:24;;;;;;;2.15;0.75;;;;;;;;;;4955982;28;20046;-63
2022/07/17 03:01:50;;;;;;;3.70;0.75;;;;;;;;;;4961816;28;20051;-63
2022/07/17 03:04:31;;;;;;;4.03;1.33;;;;;;;;;;4953814;28;20042;-60
2022/07/17 03:06:58;;;;;;;1.33;0.70;;;;;;;;;;4955168;28;20046;-62
2022/07/17 03:09:26;;;;;;;2.70;0.70;;;;;;;;;;4971293;28;20047;-63
2022/07/17 03:11:52;;;;;;;2.40;0.60;;;;;;;;;;4971385;28;20074;-63
2022/07/17 03:14:20;;;;;;;1.40;0.73;;;;;;;;;;4971815;28;20062;-62
2022/07/17 03:16:46;;;;;;;2.55;0.68;;;;;;;;;;4974284;28;20066;-63
2022/07/17 03:19:14;;;;;;;1.85;0.77;;;;;;;;;;4974227;28;20073;-63
2022/07/17 03:21:42;;;;;;;1.23;0.73;;;;;;;;;;4974028;28;20065;-63
2022/07/17 03:24:11;;;;;;;2.55;0.77;;;;;;;;;;4974719;28;20057;-63
2022/07/17 03:26:37;;;;;;;;;;;;;;;;;;4975118;28;20062;-63
2022/07/17 03:29:04;;;;;;;0.80;0.60;;;;;;;;;;4974048;28;19933;-63
2022/07/17 03:31:30;;;;;;;4.25;0.85;;;;;;;;;;4974050;28;20054;-63
2022/07/17 03:33:57;;;;;;;3.13;0.80;;;;;;;;;;4974148;28;20074;-63
2022/07/17 03:36:23;;;;;;;2.75;0.85;;;;;;;;;;4974348;28;20093;-63
2022/07/17 03:38:51;;;;;;;0.90;0.60;;;;;;;;;;4973756;28;20060;-63
2022/07/17 03:41:18;;;;;;;1.70;0.77;;;;;;;;;;4973914;28;20058;-63
2022/07/17 03:43:45;;;;;;;1.70;0.70;;;;;;;;;;4973458;28;20054;-63
2022/07/17 03:46:11;;;;;;;4.10;0.90;;;;;;;;;;4974033;28;20108;-63
2022/07/17 03:48:38;;;;;;;2.03;0.80;;;;;;;;;;4974113;28;20054;-62
2022/07/17 03:51:04;;;;;;;1.52;0.60;;;;;;;;;;4973121;28;20100;-62
2022/07/17 03:53:31;;;;;;;3.20;0.90;;;;;;;;;;4970589;28;20066;-63
2022/07/17 03:55:59;;;;;;;1.65;0.63;;;;;;;;;;4973931;28;20127;-62
2022/07/17 03:58:25;;;;;;;2.22;0.80;;;;;;;;;;4973476;28;20050;-63
2022/07/17 04:00:52;;;;;;;3.00;0.80;;;;;;;;;;4973132;28;20085;-63
2022/07/17 04:03:18;;;;;;;3.80;0.80;;;;;;;;;;4972646;28;20124;-63
2022/07/17 04:05:45;;;;;;;4.57;1.15;;;;;;;;;;4973504;28;20108;-63
2022/07/17 04:08:12;;;;;;;2.63;0.88;;;;;;;;;;4957610;28;20054;-63
2022/07/17 04:10:39;;;;;;;3.03;1.02;;;;;;;;;;4973148;28;20105;-63
2022/07/17 04:13:07;;;;;;;0.80;0.70;;;;;;;;;;4972489;28;20050;-63
2022/07/17 04:15:55;;;;;;;0.50;0.50;;;;;;;;;;4973549;28;20058;-63
2022/07/17 04:18:21;;;;;;;;;;;;;;;;;;4973065;28;20054;-63
2022/07/17 04:20:48;;;;;;;0.68;0.60;;;;;;;;;;4989358;28;19926;-63
2022/07/17 04:23:15;;;;;;;1.98;0.80;;;;;;;;;;4973267;28;20046;-64
2022/07/17 04:25:42;;;;;;;1.75;0.65;;;;;;;;;;4973291;28;20046;-63
2022/07/17 04:28:10;;;;;;;1.20;0.80;;;;;;;;;;4972870;28;20050;-63
2022/07/17 04:30:37;;;;;;;1.50;0.60;;;;;;;;;;4973065;28;20073;-63
2022/07/17 04:33:04;;;;;;;3.45;0.68;;;;;;;;;;4973534;28;20065;-63
2022/07/17 04:35:30;;;;;;;3.95;0.80;;;;;;;;;;4972806;28;20065;-63
2022/07/17 04:37:57;;;;;;;1.98;0.68;;;;;;;;;;4973538;28;20101;-63
2022/07/17 04:40:23;;;;;;;1.15;0.60;;;;;;;;;;4972729;28;20061;-64
2022/07/17 04:42:51;;;;;;;1.90;0.60;;;;;;;;;;4973107;28;20050;-63
2022/07/17 04:45:19;;;;;;;1.98;0.80;;;;;;;;;;4972741;28;20068;-64
2022/07/17 04:47:46;;;;;;;2.60;0.77;;;;;;;;;;4972467;28;20057;-63
2022/07/17 04:50:13;;;;;;;2.40;0.90;;;;;;;;;;4973193;28;20106;-63
2022/07/17 04:52:40;;;;;;;2.85;0.75;;;;;;;;;;4972637;28;20065;-63
2022/07/17 04:55:08;;;;;;;2.13;0.60;;;;;;;;;;4972648;28;20061;-64
2022/07/17 04:57:34;;;;;;;2.33;0.70;;;;;;;;;;4972904;28;20054;-63
2022/07/17 05:00:02;;;;;;;4.93;1.00;;;;;;;;;;4972837;28;20325;-63
2022/07/17 05:02:30;;;;;;;1.73;0.80;;;;;;;;;;4971703;28;20046;-64
2022/07/17 05:04:57;;;;;;;0.82;0.63;;;;;;;;;;4956370;28;20046;-63
2022/07/17 05:07:24;;;;;;;1.77;0.57;;;;;;;;;;4972734;28;20057;-63
2022/07/17 05:09:52;;;;;;;1.58;0.70;;;;;;;;;;4972086;28;20058;-63
2022/07/17 05:12:19;;;;;;;;;;;;;;;;;;4972269;28;20050;-64
2022/07/17 05:14:45;;;;;;;1.15;0.55;;;;;;;;;;4988358;28;20000;-64
2022/07/17 05:17:12;;;;;;;1.80;0.80;;;;;;;;;;4970360;28;20069;-64
2022/07/17 05:19:41;;;;;;;1.30;0.73;;;;;;;;;;4972228;28;20065;-64
2022/07/17 05:22:07;;;;;;;1.38;0.80;;;;;;;;;;4972153;28;20046;-64
2022/07/17 05:24:34;;;;;;;1.70;0.70;;;;;;;;;;4972174;28;20050;-64
2022/07/17 05:27:01;;;;;;;4.22;0.60;;;;;;;;;;4972226;28;20054;-64
2022/07/17 05:29:28;;;;;;;5.20;0.82;;;;;;;;;;4988426;28;20125;-64
2022/07/17 05:31:54;;;;;;;1.95;0.80;;;;;;;;;;4971627;28;20065;-64
2022/07/17 05:34:25;;;;;;;1.23;0.70;;;;;;;;;;4972010;28;20047;-64
2022/07/17 05:36:53;;;;;;;6.13;0.77;;;;;;;;;;4972492;28;20193;-64
2022/07/17 05:39:19;;;;;;;1.48;0.70;;;;;;;;;;4971288;28;20057;-65
2022/07/17 05:41:46;;;;;;;1.02;0.65;;;;;;;;;;4972758;28;20072;-64
2022/07/17 05:44:14;;;;;;;2.00;0.70;;;;;;;;;;4972043;28;20062;-65
2022/07/17 05:46:40;;;;;;;2.20;0.70;;;;;;;;;;4972294;28;20054;-64
2022/07/17 05:49:07;;;;;;;2.83;0.90;;;;;;;;;;4971410;28;20065;-65
2022/07/17 05:51:33;;;;;;;2.78;0.82;;;;;;;;;;4971873;28;20065;-64
2022/07/17 05:54:01;;;;;;;2.60;0.93;;;;;;;;;;4971192;28;20170;-64
2022/07/17 05:56:28;;;;;;;1.13;0.80;;;;;;;;;;4971574;28;20058;-64
2022/07/17 05:58:54;;;;;;;3.05;0.95;;;;;;;;;;4971022;28;20066;-64
2022/07/17 06:01:20;;;;;;;2.53;0.90;;;;;;;;;;4970778;28;20094;-64
2022/07/17 06:03:49;;;;;;;1.45;0.60;;;;;;;;;;4970975;28;20069;-64
2022/07/17 06:06:15;;;;;;;2.20;0.50;;;;;;;;;;4971447;28;20060;-64
2022/07/17 06:08:44;;;;;;;1.48;0.70;;;;;;;;;;4971484;28;20125;-63
2022/07/17 06:11:12;;;;;;;7.13;1.00;;;;;;;;;;4975552;28;20054;-64
2022/07/17 06:13:39;;;;;;;6.43;1.03;;;;;;;;;;4975517;28;20054;-64
2022/07/17 06:16:05;;;;;;;2.30;0.80;;;;;;;;;;4975807;28;20305;-64
2022/07/17 06:18:32;;;;;;;2.33;0.70;;;;;;;;;;4975390;28;20050;-64
2022/07/17 06:20:59;;;;;;;1.17;0.77;;;;;;;;;;4975205;28;20062;-64
2022/07/17 06:23:25;;;;;;;1.73;0.85;;;;;;;;;;4974796;28;20058;-64
2022/07/17 06:25:54;;;;;;;1.25;0.52;;;;;;;;;;4975800;28;20057;-63
2022/07/17 06:28:22;;;;;;;4.25;0.60;;;;;;;;;;4973719;28;20148;-64
2022/07/17 06:30:49;;;;;;;2.72;0.80;;;;;;;;;;4976818;28;20093;-64
2022/07/17 06:33:15;;;;;;;2.25;0.70;;;;;;;;;;4975275;28;20133;-64
2022/07/17 06:35:42;;;;;;;2.55;0.70;;;;;;;;;;4975119;28;20072;-63
2022/07/17 06:38:10;;;;;;;4.13;1.00;;;;;;;;;;4975099;28;20053;-64
2022/07/17 06:40:39;;;;;;;1.00;0.60;;;;;;;;;;4974980;28;20058;-63
2022/07/17 06:43:06;;;;;;;1.77;0.82;;;;;;;;;;4974854;28;20118;-62
2022/07/17 06:45:35;;;;;;;2.35;0.70;;;;;;;;;;4974891;28;20050;-62
2022/07/17 06:48:02;;;;;;;2.85;0.90;;;;;;;;;;4991317;28;20106;-62
2022/07/17 06:50:32;;;;;;;1.48;0.70;;;;;;;;;;4974086;28;20069;-62
2022/07/17 06:53:01;;;;;;;4.60;1.05;;;;;;;;;;4974313;28;20145;-62
2022/07/17 06:55:27;;;;;;;1.63;0.70;;;;;;;;;;4974530;28;20054;-63
2022/07/17 06:57:57;;;;;;;3.40;0.70;;;;;;;;;;4975153;28;20050;-62
2022/07/17 07:00:23;;;;;;;3.35;0.90;;;;;;;;;;4974195;28;20065;-63
2022/07/17 07:02:51;;;;;;;2.10;0.70;;;;;;;;;;4973843;28;20070;-62
2022/07/17 07:05:19;;;;;;;2.75;0.95;;;;;;;;;;4989943;28;20046;-63
2022/07/17 07:07:46;;;;;;;1.77;0.80;;;;;;;;;;4974998;28;20050;-62
2022/07/17 07:10:12;;;;;;;2.63;0.80;;;;;;;;;;4974524;28;20060;-62
2022/07/17 07:12:39;;;;;;;2.47;0.95;;;;;;;;;;4966174;28;20050;-63
2022/07/17 07:15:06;;;;;;;5.15;0.93;;;;;;;;;;4974374;28;20050;-62
2022/07/17 07:17:34;;;;;;;4.03;0.73;;;;;;;;;;4973998;28;20061;-62
2022/07/17 07:20:03;;;;;;;3.30;0.70;;;;;;;;;;4973793;28;20054;-63
2022/07/17 07:22:30;;;;;;;2.90;0.90;;;;;;;;;;4973369;28;20066;-63
2022/07/17 07:24:59;;;;;;;2.53;0.70;;;;;;;;;;4973937;28;20112;-63
2022/07/17 07:27:25;;;;;;;1.80;0.77;;;;;;;;;;4973884;28;20058;-63
2022/07/17 07:29:52;;;;;;;1.70;0.70;;;;;;;;;;4974559;28;20050;-63
2022/07/17 07:32:19;;;;;;;3.70;1.20;;;;;;;;;;4991573;28;20050;-63
2022/07/17 07:34:45;;;;;;;1.83;0.80;;;;;;;;;;4973847;28;20085;-64
2022/07/17 07:37:13;;;;;;;1.95;0.80;;;;;;;;;;4974003;28;20050;-63
2022/07/17 07:39:41;;;;;;;3.03;0.90;;;;;;;;;;4973947;28;20050;-63
2022/07/17 07:42:08;;;;;;;1.83;0.65;;;;;;;;;;4974112;28;20121;-62
2022/07/17 07:44:37;;;;;;;3.22;0.95;;;;;;;;;;4974091;28;20054;-63
2022/07/17 07:47:03;;;;;;;3.88;0.80;;;;;;;;;;4963657;28;20054;-63
2022/07/17 07:49:32;;;;;;;3.45;0.77;;;;;;;;;;4974006;28;20084;-63
2022/07/17 07:51:58;;;;;;;2.70;0.80;;;;;;;;;;4974070;28;20097;-63
2022/07/17 07:54:29;;;;;;;2.03;0.88;;;;;;;;;;4963766;28;20060;-63
2022/07/17 07:56:57;;;;;;;4.88;0.70;;;;;;;;;;4974054;28;20148;-63
2022/07/17 07:59:24;;;;;;;1.77;0.63;;;;;;;;;;4973730;28;20055;-63
2022/07/17 08:01:50;;;;;;;3.05;0.85;;;;;;;;;;4971989;23;20109;-63
2022/07/17 08:04:22;;;;;;;3.35;0.68;;;;;;;;;;4970120;28;20082;-63
2022/07/17 08:06:49;;;;;;;5.20;0.93;;;;;;;;;;4972165;28;20073;-64
2022/07/17 08:09:16;;;;;;;9.93;1.10;;;;;;;;;;4981008;28;20058;-64
2022/07/17 08:11:45;;;;;;;3.33;0.80;;;;;;;;;;4980441;28;20065;-63
2022/07/17 08:14:11;;;;;;;2.35;0.90;;;;;;;;;;4974706;28;20058;-64
2022/07/17 08:16:38;;;;;;;4.28;0.90;;;;;;;;;;4979757;28;20055;-64
2022/07/17 08:19:08;;;;;;;8.15;1.20;;;;;;;;;;4973178;28;20109;-64
2022/07/17 08:21:34;;;;;;;8.80;1.20;;;;;;;;;;4978758;28;20050;-64
2022/07/17 08:24:01;;;;;;;6.28;1.08;;;;;;;;;;4972705;28;20070;-64
2022/07/17 08:26:27;;;;;;;5.55;1.00;;;;;;;;;;4981483;28;20050;-64
2022/07/17 08:28:55;;;;;;;3.17;0.95;;;;;;;;;;4976897;28;20062;-64
2022/07/17 08:31:22;;;;;;;2.35;0.88;;;;;;;;;;4981969;28;20058;-66
2022/07/17 08:33:49;;;;;;;8.30;1.25;;;;;;;;;;4977525;28;20059;-67
2022/07/17 08:36:15;;;;;;;1.55;0.73;;;;;;;;;;4975021;28;20055;-67
2022/07/17 08:38:42;;;;;;;2.10;0.98;;;;;;;;;;4977812;28;20061;-67
2022/07/17 08:41:10;;;;;;;5.60;0.90;;;;;;;;;;4970184;28;20070;-67
2022/07/17 08:43:36;;;;;;;3.38;0.60;;;;;;;;;;4977301;28;20058;-67
2022/07/17 08:46:05;;;;;;;2.72;0.73;;;;;;;;;;4989149;28;20081;-66
2022/07/17 08:48:34;;;;;;;2.17;0.70;;;;;;;;;;4976698;28;20058;-64
2022/07/17 08:51:00;;;;;;;2.08;0.75;;;;;;;;;;4980035;28;20150;-64
2022/07/17 08:53:27;;;;;;;3.38;0.93;;;;;;;;;;4972964;28;20073;-64
2022/07/17 08:55:54;;;;;;;1.63;0.77;;;;;;;;;;4981757;28;20062;-64
2022/07/17 08:58:21;;;;;;;3.10;0.70;;;;;;;;;;4971310;28;20062;-64
2022/07/17 09:00:49;;;;;;;4.03;0.70;;;;;;;;;;4977494;28;20070;-63
2022/07/17 09:03:18;;;;;;;2.25;0.82;;;;;;;;;;4971533;28;20059;-64
2022/07/17 09:05:46;;;;;;;0.82;0.70;;;;;;;;;;4962271;28;20047;-64
2022/07/17 09:08:19;;;;;;;6.00;0.80;;;;;;;;;;4968758;28;20058;-63
2022/07/17 09:10:46;;;;;;;3.38;0.80;;;;;;;;;;4981478;28;20046;-63
2022/07/17 09:13:17;;;;;;;6.50;1.17;;;;;;;;;;4979413;28;20096;-63
2022/07/17 09:15:43;;;;;;;5.47;1.00;;;;;;;;;;4976084;28;20079;-64
2022/07/17 09:18:10;;;;;;;2.53;0.88;;;;;;;;;;4978584;28;20046;-63
2022/07/17 09:20:44;;;;;;;2.08;0.70;;;;;;;;;;4970422;28;20065;-63
2022/07/17 09:23:11;;;;;;;5.30;0.90;;;;;;;;;;4983000;28;20054;-63
2022/07/17 09:25:38;;;;;;;4.25;0.90;;;;;;;;;;4969023;28;20061;-63
2022/07/17 09:28:06;;;;;;;3.30;0.80;;;;;;;;;;4975092;28;20055;-63
2022/07/17 09:30:33;;;;;;;1.95;0.70;;;;;;;;;;4973794;28;20054;-63
2022/07/17 09:33:00;;;;;;;4.60;0.90;;;;;;;;;;4977749;28;20043;-63
2022/07/17 09:35:27;;;;;;;1.95;0.65;;;;;;;;;;4999145;28;20062;-63
2022/07/17 09:37:55;;;;;;;2.25;0.70;;;;;;;;;;4968870;28;20050;-63
2022/07/17 09:43:07;;;;;;;6.10;1.10;;;;;;;;;;4975355;28;20061;-63
2022/07/17 09:45:35;;;;;;;4.68;0.93;;;;;;;;;;4987236;28;20056;-63
2022/07/17 09:48:02;;;;;;;3.92;0.80;;;;;;;;;;4979660;28;20046;-64
2022/07/17 09:50:29;;;;;;;7.28;1.15;;;;;;;;;;4988298;28;20052;-63
2022/07/17 09:52:58;;;;;;;2.83;0.80;;;;;;;;;;4982894;28;20038;-63
2022/07/17 09:55:28;;;;;;;2.80;0.77;;;;;;;;;;4985566;28;20053;-63
2022/07/17 09:57:55;;;;;;;2.72;0.88;;;;;;;;;;4987503;28;20267;-64
2022/07/17 10:00:22;;;;;;;3.88;1.15;;;;;;;;;;4979436;28;20061;-63
2022/07/17 10:02:49;;;;;;;4.55;1.00;;;;;;;;;;4988020;28;20077;-64
2022/07/17 10:05:16;;;;;;;3.40;0.98;;;;;;;;;;4966783;28;20062;-63
2022/07/17 10:07:45;;;;;;;3.22;0.93;;;;;;;;;;4968996;28;20119;-64
2022/07/17 10:10:11;;;;;;;;;;;;;;;;;;4969455;28;20061;-64
2022/07/17 10:12:41;;;;;;;3.83;0.80;;;;;;;;;;4988316;28;19929;-65
2022/07/17 10:15:08;;;;;;;2.83;0.80;;;;;;;;;;4981432;28;20058;-63
2022/07/17 10:17:35;;;;;;;5.82;0.80;;;;;;;;;;4987632;28;20108;-63
2022/07/17 10:20:03;;;;;;;5.10;1.10;;;;;;;;;;4987807;28;20085;-63
2022/07/17 10:22:41;;;;;;;2.53;1.00;;;;;;;;;;4981069;28;20054;-64
2022/07/17 10:25:07;;;;;;;2.95;0.75;;;;;;;;;;4987443;28;20063;-63
2022/07/17 10:27:37;;;;;;;1.88;0.80;;;;;;;;;;4978853;28;20069;-63
2022/07/17 10:30:06;;;;;;;1.50;0.80;;;;;;;;;;4987163;28;20054;-63
2022/07/17 10:32:33;;;;;;;3.10;0.88;;;;;;;;;;4978506;28;20058;-64
2022/07/17 10:35:01;;;;;;;1.73;0.70;;;;;;;;;;4988221;28;20061;-63
2022/07/17 10:37:31;;;;;;;3.70;0.75;;;;;;;;;;4981847;28;20055;-63
2022/07/17 10:40:00;;;;;;;4.28;1.13;;;;;;;;;;4967437;28;20055;-63
2022/07/17 10:42:26;;;;;;;;;;;;;;;;;;4967888;28;20058;-63
2022/07/17 10:44:53;;;;;;;2.15;0.80;;;;;;;;;;4965007;28;19926;-63
2022/07/17 10:47:21;;;;;;;12.25;1.85;;;;;;;;;;4968213;28;20055;-64
2022/07/17 10:49:49;;;;;;;1.88;0.70;;;;;;;;;;4972903;28;20050;-63
2022/07/17 10:52:15;;;;;;;1.73;0.80;;;;;;;;;;4987428;28;20058;-63
2022/07/17 10:54:42;;;;;;;2.03;0.95;;;;;;;;;;4988179;28;20059;-64
2022/07/17 10:57:09;;;;;;;3.45;1.00;;;;;;;;;;4974062;28;20072;-63
2022/07/17 10:59:36;;;;;;;4.63;1.00;;;;;;;;;;4989721;28;20065;-64
2022/07/17 11:02:03;;;;;;;4.32;1.00;;;;;;;;;;4971989;28;20056;-64
2022/07/17 11:04:39;;;;;;;3.92;0.90;;;;;;;;;;4971327;28;20046;-65
2022/07/17 11:07:07;;;;;;;1.88;0.80;;;;;;;;;;4965535;28;20058;-64
2022/07/17 11:09:33;;;;;;;3.47;1.00;;;;;;;;;;4972416;28;20059;-64
2022/07/17 11:12:01;;;;;;;3.28;0.93;;;;;;;;;;4973907;28;20046;-64
2022/07/17 11:14:27;;;;;;;1.70;0.90;;;;;;;;;;4991517;28;20108;-64
2022/07/17 11:16:55;;;;;;;3.05;1.13;;;;;;;;;;4982090;28;20133;-64
2022/07/17 11:19:22;;;;;;;2.60;0.83;;;;;;;;;;4989747;28;20050;-64
2022/07/17 11:21:51;;;;;;;1.98;1.00;;;;;;;;;;4990172;28;20328;-64
2022/07/17 11:24:17;;;;;;;;;;;;;;;;;;4967854;28;20131;-64
2022/07/17 11:26:44;;;;;;;7.20;0.98;;;;;;;;;;4971594;28;19922;-64
2022/07/17 11:29:11;;;;;;;2.15;0.80;;;;;;;;;;4982205;28;20054;-64
2022/07/17 11:31:38;;;;;;;1.98;1.00;;;;;;;;;;4990525;28;20118;-64
2022/07/17 11:34:06;;;;;;;2.33;0.85;;;;;;;;;;4986616;28;20054;-64
2022/07/17 11:36:32;;;;;;;;;;;;;;;;;;4991021;28;20056;-64
2022/07/17 11:39:01;;;;;;;3.50;1.00;;;;;;;;;;4984254;28;19926;-64
2022/07/17 11:41:32;;;;;;;1.75;0.70;;;;;;;;;;4989849;28;20054;-64
2022/07/17 11:43:59;;;;;;;1.77;0.88;;;;;;;;;;4986626;28;20062;-63
2022/07/17 11:46:26;;;;;;;5.18;0.95;;;;;;;;;;4990384;28;20083;-64
2022/07/17 11:48:52;;;;;;;2.97;0.95;;;;;;;;;;4983973;28;20162;-64
2022/07/17 11:51:19;;;;;;;5.68;1.13;;;;;;;;;;4990380;28;20062;-65
2022/07/17 11:53:47;;;;;;;5.47;1.45;;;;;;;;;;4984396;28;20047;-65
2022/07/17 11:56:21;;;;;;;2.97;1.00;;;;;;;;;;4990341;28;20042;-65
2022/07/17 11:58:50;;;;;;;5.15;0.98;;;;;;;;;;4983604;28;20062;-65
2022/07/17 12:01:17;;;;;;;3.10;1.13;;;;;;;;;;4990098;28;20063;-65
2022/07/17 12:03:44;;;;;;;6.65;1.13;;;;;;;;;;4984076;28;20055;-64
2022/07/17 12:06:10;;;;;;;1.58;0.90;;;;;;;;;;4989786;28;20058;-64
2022/07/17 12:08:38;;;;;;;4.65;1.25;;;;;;;;;;4989698;28;20053;-64
2022/07/17 12:11:06;;;;;;;2.20;0.90;;;;;;;;;;4983899;28;20062;-65
2022/07/17 12:13:44;;;;;;;2.22;1.10;;;;;;;;;;4991263;28;20062;-65
2022/07/17 12:16:11;;;;;;;;;;;;;;;;;;4967424;28;20137;-64
2022/07/17 12:18:38;;;;;;;5.40;1.13;;;;;;;;;;4953938;28;19938;-65
2022/07/17 12:21:06;;;;;;;5.05;0.98;;;;;;;;;;4980393;28;20135;-65
2022/07/17 12:23:34;;;;;;;2.35;1.05;;;;;;;;;;4989485;28;20061;-64
2022/07/17 12:26:04;;;;;;;3.15;0.90;;;;;;;;;;4984047;28;20065;-64
2022/07/17 12:28:32;;;;;;;3.15;1.05;;;;;;;;;;4988862;28;20058;-64
2022/07/17 12:31:01;;;;;;;3.65;1.15;;;;;;;;;;4983429;28;20058;-63
2022/07/17 12:33:27;;;;;;;;;;;;;;;;;;4981887;28;20046;-64
2022/07/17 12:35:54;;;;;;;3.67;1.00;;;;;;;;;;4973671;28;19926;-63
2022/07/17 12:38:20;;;;;;;3.22;1.65;;;;;;;;;;4989351;28;20058;-64
2022/07/17 12:40:47;;;;;;;6.65;1.58;;;;;;;;;;4978104;28;20074;-64
2022/07/17 12:43:14;;;;;;;5.53;1.60;;;;;;;;;;4969895;28;20105;-66
2022/07/17 12:45:40;;;;;;;4.95;1.30;;;;;;;;;;4967516;28;20050;-66
2022/07/17 12:48:08;;;;;;;5.90;1.00;;;;;;;;;;4989248;28;20054;-64
2022/07/17 12:50:35;;;;;;;3.20;1.27;;;;;;;;;;4982965;28;20054;-64
2022/07/17 12:53:02;;;;;;;4.97;1.10;;;;;;;;;;4990611;28;20064;-64
2022/07/17 12:55:28;;;;;;;2.50;0.80;;;;;;;;;;5007947;28;20046;-63
2022/07/17 12:57:55;;;;;;;8.60;1.45;;;;;;;;;;4983471;28;20053;-64
2022/07/17 13:00:22;;;;;;;4.57;1.30;;;;;;;;;;4989042;28;20058;-64
2022/07/17 13:02:48;;;;;;;2.55;1.02;;;;;;;;;;4985170;28;20061;-63
2022/07/17 13:05:16;;;;;;;3.90;0.88;;;;;;;;;;5008288;28;20054;-64
2022/07/17 13:07:43;;;;;;;1.45;0.90;;;;;;;;;;4988518;28;20081;-64
2022/07/17 13:10:10;;;;;;;2.47;1.10;;;;;;;;;;4972544;28;20058;-64
2022/07/17 13:12:37;;;;;;;4.57;1.33;;;;;;;;;;4967155;28;20066;-64
2022/07/17 13:15:04;;;;;;;5.57;1.30;;;;;;;;;;4972679;28;20056;-64
2022/07/17 13:17:31;;;;;;;6.37;1.70;;;;;;;;;;4966974;28;20070;-64
2022/07/17 13:20:00;;;;;;;5.15;1.20;;;;;;;;;;4971404;28;20089;-64
2022/07/17 13:22:28;;;;;;;5.18;1.25;;;;;;;;;;4972401;28;20050;-64
2022/07/17 13:24:54;;;;;;;;;;;;;;;;;;4973906;28;20114;-65
2022/07/17 13:27:21;;;;;;;3.72;0.80;;;;;;;;;;4966954;28;19972;-64
2022/07/17 13:29:47;;;;;;;4.28;1.10;;;;;;;;;;4972519;28;20055;-64
2022/07/17 13:32:14;;;;;;;2.47;0.88;;;;;;;;;;4968750;28;20049;-64
2022/07/17 13:34:41;;;;;;;2.58;1.10;;;;;;;;;;4991088;28;20068;-64
2022/07/17 13:37:08;;;;;;;3.90;1.48;;;;;;;;;;4991008;28;20068;-65
2022/07/17 13:39:36;;;;;;;2.72;0.95;;;;;;;;;;4985346;28;20091;-64
2022/07/17 13:42:04;;;;;;;2.60;1.00;;;;;;;;;;5008395;28;20103;-65
2022/07/17 13:44:30;;;;;;;2.10;0.98;;;;;;;;;;4967508;28;20062;-64
2022/07/17 13:46:57;;;;;;;6.03;1.88;;;;;;;;;;4972404;28;20053;-64
2022/07/17 13:49:23;;;;;;;2.28;1.05;;;;;;;;;;4980757;28;20042;-68
2022/07/17 13:51:50;;;;;;;4.10;1.00;;;;;;;;;;4991931;28;20054;-65
2022/07/17 13:54:17;;;;;;;2.92;1.45;;;;;;;;;;4962431;28;20154;-64
2022/07/17 13:56:45;;;;;;;10.48;1.60;;;;;;;;;;4936933;28;20059;-65
2022/07/17 13:59:12;;;;;;;3.05;1.33;;;;;;;;;;4955780;28;20144;-65
2022/07/17 14:01:38;;;;;;;3.40;1.13;;;;;;;;;;4972047;28;20057;-65
2022/07/17 14:04:05;;;;;;;4.00;1.30;;;;;;;;;;4974214;28;20054;-65
2022/07/17 14:06:32;;;;;;;3.47;1.40;;;;;;;;;;4988343;28;20134;-65
2022/07/17 14:08:58;;;;;;;6.85;1.50;;;;;;;;;;4977414;28;20122;-64
2022/07/17 14:11:25;;;;;;;3.38;1.27;;;;;;;;;;4965341;28;20050;-66
2022/07/17 14:13:53;;;;;;;3.55;1.08;;;;;;;;;;4965773;28;20070;-65
2022/07/17 14:16:20;;;;;;;;;;;;;;;;;;4988431;28;20054;-66
2022/07/17 14:21:31;;;;;;;3.65;1.17;;;;;;;;;;4987642;28;20078;-66
2022/07/17 14:23:57;;;;;;;3.90;1.42;;;;;;;;;;4988106;28;20061;-65
2022/07/17 14:26:24;;;;;;;9.88;1.88;;;;;;;;;;4982604;28;20050;-65
2022/07/17 14:28:51;;;;;;;4.80;1.40;;;;;;;;;;4976826;28;20062;-65
2022/07/17 14:31:19;;;;;;;5.97;1.60;;;;;;;;;;4973673;28;20050;-65
2022/07/17 14:33:46;;;;;;;6.47;1.85;;;;;;;;;;4993913;28;20117;-65
2022/07/17 14:36:13;;;;;;;4.32;1.58;;;;;;;;;;4978066;28;20062;-64
2022/07/17 14:38:40;;;;;;;5.18;1.70;;;;;;;;;;4992047;28;20062;-64
2022/07/17 14:41:07;;;;;;;1.58;1.00;;;;;;;;;;4973773;28;20054;-65
2022/07/17 14:43:34;;;;;;;3.50;1.50;;;;;;;;;;4972015;28;20055;-64
2022/07/17 14:46:00;;;;;;;2.45;1.33;;;;;;;;;;4967817;28;20063;-65
2022/07/17 14:48:28;;;;;;;5.18;1.77;;;;;;;;;;4972130;28;20058;-65
2022/07/17 14:50:55;;;;;;;;;;;;;;;;;;4974025;28;20058;-65
2022/07/17 14:53:21;;;;;;;4.47;1.83;;;;;;;;;;4991655;28;19929;-66
2022/07/17 14:55:48;;;;;;;5.00;1.58;;;;;;;;;;4986156;28;20066;-65
2022/07/17 14:58:15;;;;;;;6.53;1.98;;;;;;;;;;4990953;28;20054;-65